Time;durP1;ratioP1;P1;durP2;ratioP2;P2;SDS_P1;SDS_P2;PMS_P1;PMS_P2;Temp;Humidity;BMP_temperature;BMP_pressure;BME280_temperature;BME280_humidity;BME280_pressure;Samples;Min_cycle;Max_cycle;Signal;HPM_P1;HPM_P2
2023/07/05 00:01:01;;;;;;;;;;;20.60;64.50;;;;;;5113827;28;20047;-84
2023/07/05 00:03:27;;;;;;;1.80;1.00;;;20.60;64.30;;;;;;5114977;28;20363;-84
2023/07/05 00:05:53;;;;;;;0.68;0.68;;;20.50;64.70;;;;;;5113219;28;20069;-85
2023/07/05 00:08:22;;;;;;;;;;;20.40;64.80;;;;;;5114006;28;20028;-82
2023/07/05 00:10:48;;;;;;;1.52;1.27;;;20.40;64.70;;;;;;5112627;28;19931;-83
2023/07/05 00:13:14;;;;;;;;;;;20.40;64.70;;;;;;5097012;28;20339;-80
2023/07/05 00:15:47;;;;;;;0.50;0.50;;;20.40;64.60;;;;;;5112601;28;20368;-82
2023/07/05 00:18:13;;;;;;;1.05;0.80;;;20.40;64.60;;;;;;5113423;28;20103;-82
2023/07/05 00:20:39;;;;;;;;;;;20.30;64.30;;;;;;5096120;28;20036;-84
2023/07/05 00:23:05;;;;;;;1.58;1.10;;;20.30;64.90;;;;;;5113119;28;20364;-82
2023/07/05 00:25:31;;;;;;;0.40;0.40;;;20.20;64.90;;;;;;5095527;28;20419;-84
2023/07/05 00:27:58;;;;;;;0.80;0.47;;;20.20;65.10;;;;;;5113524;28;20032;-83
2023/07/05 00:30:24;;;;;;;0.95;0.50;;;20.20;65.30;;;;;;5095811;28;20084;-85
2023/07/05 00:32:50;;;;;;;;;;;20.10;65.50;;;;;;5096502;28;20031;-84
2023/07/05 00:35:16;;;;;;;0.85;0.47;;;20.10;65.60;;;;;;5095608;28;20347;-82
2023/07/05 00:37:42;;;;;;;;;;;20.00;65.20;;;;;;5113596;28;20034;-85
2023/07/05 00:40:09;;;;;;;0.85;0.70;;;20.00;65.00;;;;;;5112795;28;20368;-85
2023/07/05 00:42:35;;;;;;;1.08;0.93;;;20.00;64.70;;;;;;5095984;28;20028;-82
2023/07/05 00:45:19;;;;;;;;;;;20.00;65.20;;;;;;5096306;28;20028;-84
2023/07/05 00:47:46;;;;;;;0.47;0.38;;;19.90;65.10;;;;;;5112860;28;19912;-85
2023/07/05 00:50:38;;;;;;;0.73;0.63;;;19.70;65.30;;;;;;5095575;28;20032;-86
2023/07/05 00:53:05;;;;;;;1.05;0.80;;;19.60;65.90;;;;;;5095909;28;20035;-82
2023/07/05 00:55:32;;;;;;;1.00;0.90;;;19.60;66.10;;;;;;5095258;28;20027;-83
2023/07/05 00:57:58;;;;;;;0.52;0.38;;;19.50;66.00;;;;;;5112821;28;20362;-82
2023/07/05 01:00:24;;;;;;;;;;;19.60;66.00;;;;;;5112536;28;20047;-85
2023/07/05 01:02:56;;;;;;;0.40;0.40;;;19.70;65.50;;;;;;5113015;28;20014;-85
2023/07/05 01:05:24;;;;;;;0.63;0.60;;;19.60;65.60;;;;;;5112520;28;20679;-83
2023/07/05 01:07:50;;;;;;;0.80;0.60;;;19.50;66.00;;;;;;5095950;28;20492;-82
2023/07/05 01:10:18;;;;;;;;;;;19.60;66.10;;;;;;5112318;28;20385;-85
2023/07/05 01:13:25;;;;;;;0.40;0.40;;;19.60;65.50;;;;;;5113781;28;20010;-85
2023/07/05 01:16:48;;;;;;;2.42;0.88;;;19.60;65.70;;;;;;5113238;28;20039;-85
2023/07/05 01:20:10;;;;;;;0.30;0.20;;;19.60;65.70;;;;;;5112660;28;20032;-82
2023/07/05 01:23:14;;;;;;;0.28;0.28;;;19.70;65.50;;;;;;5113623;28;20048;-82
2023/07/05 01:26:02;;;;;;;1.60;0.80;;;19.70;65.50;;;;;;5111975;28;20032;-84
2023/07/05 01:28:40;;;;;;;1.48;0.80;;;19.60;65.60;;;;;;5113764;28;20365;-83
2023/07/05 01:31:39;;;;;;;0.35;0.32;;;19.50;66.10;;;;;;5113369;28;20102;-85
2023/07/05 01:34:42;;;;;;;0.70;0.50;;;19.50;66.30;;;;;;5113885;28;20084;-83
2023/07/05 01:37:27;;;;;;;0.43;0.30;;;19.50;66.00;;;;;;5113759;28;20103;-85
2023/07/05 01:39:54;;;;;;;0.65;0.60;;;19.40;66.10;;;;;;5112487;28;20503;-84
2023/07/05 01:42:27;;;;;;;0.40;0.30;;;19.50;66.10;;;;;;5095385;28;20123;-83
2023/07/05 01:44:53;;;;;;;0.73;0.47;;;19.50;66.10;;;;;;5112841;28;20032;-84
2023/07/05 01:47:57;;;;;;;;;;;19.50;66.20;;;;;;5113006;28;20032;-83
2023/07/05 01:50:49;;;;;;;1.80;0.95;;;19.50;65.90;;;;;;5111862;28;19923;-84
2023/07/05 01:53:38;;;;;;;0.73;0.50;;;19.50;66.00;;;;;;5112845;28;20038;-83
2023/07/05 01:56:11;;;;;;;0.60;0.40;;;19.50;66.20;;;;;;5095184;28;20032;-83
2023/07/05 01:58:45;;;;;;;1.60;1.15;;;19.40;66.40;;;;;;5112558;28;20038;-83
2023/07/05 02:01:14;;;;;;;0.70;0.38;;;19.50;66.50;;;;;;5111958;28;20067;-84
2023/07/05 02:03:41;;;;;;;1.20;0.68;;;19.40;66.30;;;;;;5112221;28;20032;-83
2023/07/05 02:06:09;;;;;;;0.93;0.90;;;19.40;66.50;;;;;;5111967;28;20373;-85
2023/07/05 02:08:38;;;;;;;1.08;0.68;;;19.40;66.50;;;;;;5112420;28;20036;-83
2023/07/05 02:11:04;;;;;;;1.17;0.43;;;19.40;66.60;;;;;;5096414;28;20438;-85
2023/07/05 02:13:30;;;;;;;0.82;0.47;;;19.50;66.70;;;;;;5116215;28;20034;-83
2023/07/05 02:15:56;;;;;;;1.85;0.65;;;19.50;66.80;;;;;;5117017;28;20046;-85
2023/07/05 02:18:22;;;;;;;1.67;0.43;;;19.40;66.60;;;;;;5117378;28;20221;-85
2023/07/05 02:20:48;;;;;;;0.85;0.30;;;19.30;67.70;;;;;;5098618;28;20476;-84
2023/07/05 02:23:14;;;;;;;2.63;0.80;;;19.30;66.80;;;;;;5116228;28;20035;-85
2023/07/05 02:25:40;;;;;;;;;;;19.30;66.70;;;;;;5116048;28;20035;-84
2023/07/05 02:28:25;;;;;;;0.75;0.40;;;19.30;66.50;;;;;;5116143;28;20010;-83
2023/07/05 02:30:51;;;;;;;0.52;0.52;;;19.10;66.80;;;;;;5115287;28;20036;-85
2023/07/05 02:33:17;;;;;;;0.45;0.40;;;19.00;66.60;;;;;;5116166;28;20073;-85
2023/07/05 02:35:43;;;;;;;2.53;0.55;;;19.00;66.50;;;;;;5115301;28;20040;-84
2023/07/05 02:38:09;;;;;;;;;;;19.00;66.40;;;;;;5117454;28;20042;-84
2023/07/05 02:40:35;;;;;;;0.47;0.43;;;19.00;66.40;;;;;;5115089;28;20014;-85
2023/07/05 02:43:01;;;;;;;;;;;18.90;66.40;;;;;;5116443;28;20070;-85
2023/07/05 02:45:28;;;;;;;0.30;0.20;;;18.80;65.90;;;;;;5115261;28;19920;-85
2023/07/05 02:47:54;;;;;;;0.30;0.20;;;18.80;66.20;;;;;;5098776;28;20024;-85
2023/07/05 02:50:21;;;;;;;0.40;0.40;;;18.80;66.30;;;;;;5115231;28;20051;-84
2023/07/05 02:52:47;;;;;;;1.90;0.82;;;18.80;66.90;;;;;;5115514;28;20556;-84
2023/07/05 02:55:13;;;;;;;0.30;0.30;;;18.80;66.50;;;;;;5097843;28;20047;-85
2023/07/05 02:57:39;;;;;;;;;;;18.80;66.50;;;;;;5099056;28;20088;-84
2023/07/05 03:00:06;;;;;;;0.52;0.40;;;18.80;66.40;;;;;;5097811;28;19916;-84
2023/07/05 03:02:33;;;;;;;2.28;0.95;;;18.80;66.20;;;;;;5098031;28;20066;-84
2023/07/05 03:05:07;;;;;;;1.00;0.50;;;18.80;66.20;;;;;;5115179;28;20039;-84
2023/07/05 03:07:34;;;;;;;0.65;0.45;;;18.80;66.20;;;;;;5115198;28;20066;-85
2023/07/05 03:09:59;;;;;;;;;;;18.80;66.30;;;;;;5098147;28;20043;-84
2023/07/05 03:12:25;;;;;;;0.38;0.32;;;18.80;66.30;;;;;;5114774;28;20372;-83
2023/07/05 03:14:52;;;;;;;3.95;0.80;;;18.80;66.40;;;;;;5097861;28;20035;-84
2023/07/05 03:17:19;;;;;;;0.20;0.20;;;18.80;66.50;;;;;;5114856;28;20483;-84
2023/07/05 03:19:45;;;;;;;0.60;0.28;;;18.80;66.40;;;;;;5114793;28;20080;-84
2023/07/05 03:22:11;;;;;;;0.80;0.50;;;18.80;66.60;;;;;;5097062;28;20036;-84
2023/07/05 03:24:37;;;;;;;0.63;0.50;;;18.80;66.60;;;;;;5097753;28;20043;-85
2023/07/05 03:27:03;;;;;;;0.35;0.17;;;18.80;66.50;;;;;;5114744;28;20036;-84
2023/07/05 03:29:29;;;;;;;0.55;0.55;;;18.80;66.10;;;;;;5114642;28;20047;-85
2023/07/05 03:31:55;;;;;;;;;;;18.80;66.60;;;;;;5114915;28;20062;-84
2023/07/05 03:34:21;;;;;;;0.73;0.73;;;18.80;66.40;;;;;;5114689;28;19912;-84
2023/07/05 03:36:47;;;;;;;1.85;0.57;;;18.80;66.70;;;;;;5097166;28;20388;-85
2023/07/05 03:39:32;;;;;;;0.75;0.60;;;18.80;66.70;;;;;;5097494;28;20031;-84
2023/07/05 03:41:58;;;;;;;0.93;0.68;;;18.80;66.70;;;;;;5097321;28;20055;-85
2023/07/05 03:44:24;;;;;;;0.40;0.40;;;18.80;66.90;;;;;;5114355;28;20046;-84
2023/07/05 03:46:50;;;;;;;;;;;18.80;66.80;;;;;;5097684;28;20122;-85
2023/07/05 03:49:17;;;;;;;0.28;0.28;;;18.80;66.90;;;;;;5114206;28;20344;-84
2023/07/05 03:51:44;;;;;;;1.35;1.17;;;18.70;66.20;;;;;;5096927;28;20606;-84
2023/07/05 03:54:10;;;;;;;1.42;1.00;;;18.70;66.70;;;;;;5114340;28;20035;-84
2023/07/05 03:56:38;;;;;;;0.55;0.30;;;18.80;66.70;;;;;;5113698;28;20044;-84
2023/07/05 03:59:04;;;;;;;0.35;0.35;;;18.80;66.80;;;;;;5115414;27;20427;-85
2023/07/05 04:01:30;;;;;;;;;;;18.90;67.00;;;;;;5114388;28;20039;-85
2023/07/05 04:04:18;;;;;;;0.77;0.40;;;18.90;66.70;;;;;;5114141;28;20334;-84
2023/07/05 04:06:44;;;;;;;0.50;0.40;;;18.90;66.90;;;;;;5096723;28;20437;-85
2023/07/05 04:09:10;;;;;;;;;;;18.90;67.20;;;;;;5114459;28;20093;-85
2023/07/05 04:11:36;;;;;;;0.28;0.28;;;18.90;67.40;;;;;;5096505;28;20435;-84
2023/07/05 04:14:02;;;;;;;0.80;0.57;;;18.90;67.30;;;;;;5113950;28;20031;-85
2023/07/05 04:16:29;;;;;;;0.20;0.20;;;18.90;67.50;;;;;;5113794;28;20113;-85
2023/07/05 04:18:56;;;;;;;;;;;19.00;67.40;;;;;;5114222;28;20027;-85
2023/07/05 04:21:23;;;;;;;0.45;0.40;;;19.00;67.20;;;;;;5096325;28;19920;-84
2023/07/05 04:23:50;;;;;;;0.32;0.32;;;19.00;67.50;;;;;;5113797;28;20023;-86
2023/07/05 04:26:34;;;;;;;0.95;0.77;;;19.00;67.60;;;;;;5096365;28;20032;-85
2023/07/05 04:29:00;;;;;;;0.30;0.30;;;19.00;68.50;;;;;;5113424;28;20032;-84
2023/07/05 04:31:29;;;;;;;3.00;0.45;;;19.00;68.80;;;;;;5113459;28;20040;-86
2023/07/05 04:33:57;;;;;;;2.17;0.70;;;19.00;69.10;;;;;;5114022;28;20036;-84
2023/07/05 04:36:25;;;;;;;0.50;0.35;;;19.00;69.40;;;;;;5113214;28;20085;-84
2023/07/05 04:38:51;;;;;;;1.05;0.70;;;18.90;69.50;;;;;;5113352;28;20031;-86
2023/07/05 04:41:17;;;;;;;0.38;0.38;;;18.90;68.80;;;;;;5113103;28;20032;-87
2023/07/05 04:43:43;;;;;;;;;;;19.00;69.10;;;;;;5114086;28;20098;-85
2023/07/05 04:46:09;;;;;;;1.08;0.60;;;19.10;69.10;;;;;;5113031;28;19920;-87
2023/07/05 04:48:35;;;;;;;;;;;19.00;69.80;;;;;;5096886;28;20031;-84
2023/07/05 04:51:01;;;;;;;0.55;0.50;;;19.00;69.90;;;;;;5095842;28;20354;-85
2023/07/05 04:53:28;;;;;;;;;;;19.00;70.10;;;;;;5114885;28;20027;-86
2023/07/05 04:55:57;;;;;;;1.73;0.85;;;19.10;69.50;;;;;;5113049;28;19962;-84
2023/07/05 04:58:23;;;;;;;0.28;0.28;;;19.10;69.30;;;;;;5113417;28;20027;-85
2023/07/05 05:00:50;;;;;;;0.55;0.50;;;19.20;69.60;;;;;;5112452;28;20040;-84
2023/07/05 05:03:20;;;;;;;1.17;0.68;;;19.20;69.40;;;;;;5113152;28;20024;-86
2023/07/05 05:05:51;;;;;;;0.45;0.28;;;19.30;69.80;;;;;;5095510;28;20043;-85
2023/07/05 05:08:19;;;;;;;0.52;0.50;;;19.40;69.50;;;;;;5113312;28;20480;-85
2023/07/05 05:10:50;;;;;;;0.30;0.20;;;19.50;69.30;;;;;;5112393;28;20059;-85
2023/07/05 05:13:16;;;;;;;0.40;0.28;;;19.60;68.80;;;;;;5113114;28;20516;-86
2023/07/05 05:15:42;;;;;;;1.63;0.60;;;19.70;68.90;;;;;;5112595;28;20035;-84
2023/07/05 05:18:08;;;;;;;;;;;19.70;69.10;;;;;;5113623;28;20028;-88
2023/07/05 05:20:37;;;;;;;1.10;0.75;;;19.70;68.50;;;;;;5095532;28;19926;-88
2023/07/05 05:23:03;;;;;;;0.20;0.20;;;19.80;69.10;;;;;;5096137;28;20397;-85
2023/07/05 05:25:29;;;;;;;;;;;19.80;69.30;;;;;;5114099;28;20114;-86
2023/07/05 05:27:55;;;;;;;0.73;0.35;;;19.90;69.10;;;;;;5113221;28;19912;-86
2023/07/05 05:30:21;;;;;;;;;;;20.00;68.50;;;;;;5114070;28;20100;-85
2023/07/05 05:32:48;;;;;;;0.98;0.65;;;20.10;68.50;;;;;;5095891;28;20006;-86
2023/07/05 05:35:16;;;;;;;0.22;0.22;;;20.20;68.20;;;;;;5112480;28;20020;-88
2023/07/05 05:37:42;;;;;;;0.85;0.70;;;20.30;69.00;;;;;;5096010;28;20024;-87
2023/07/05 05:40:10;;;;;;;0.50;0.30;;;20.30;69.70;;;;;;5113367;28;20115;-84
2023/07/05 05:42:37;;;;;;;0.65;0.50;;;20.30;70.20;;;;;;5112764;28;20373;-85
2023/07/05 05:45:04;;;;;;;0.40;0.40;;;20.30;70.10;;;;;;5114283;28;20020;-86
2023/07/05 05:47:30;;;;;;;0.30;0.30;;;20.40;70.00;;;;;;5099768;28;20042;-86
2023/07/05 05:49:56;;;;;;;;;;;20.50;69.80;;;;;;5117502;28;20031;-87
2023/07/05 05:52:22;;;;;;;1.48;0.73;;;20.70;69.40;;;;;;5116524;28;20372;-87
2023/07/05 05:54:48;;;;;;;1.02;0.60;;;20.70;69.70;;;;;;5099697;28;20031;-88
2023/07/05 05:57:14;;;;;;;;;;;20.80;69.80;;;;;;5100161;28;20067;-87
2023/07/05 05:59:40;;;;;;;0.52;0.30;;;20.80;70.00;;;;;;5117584;28;20387;-86
2023/07/05 06:02:08;;;;;;;0.88;0.75;;;20.80;70.20;;;;;;5116442;28;20039;-85
2023/07/05 06:04:34;;;;;;;0.40;0.22;;;20.90;70.30;;;;;;5099493;28;20027;-86
2023/07/05 06:07:00;;;;;;;;;;;21.10;69.90;;;;;;5099808;28;20032;-85
2023/07/05 06:09:26;;;;;;;0.85;0.40;;;21.30;69.30;;;;;;5116278;28;20055;-86
2023/07/05 06:11:52;;;;;;;;;;;21.50;68.70;;;;;;5116537;28;20598;-85
2023/07/05 06:14:18;;;;;;;0.47;0.30;;;21.70;68.20;;;;;;5116503;28;19922;-86
2023/07/05 06:16:44;;;;;;;;;;;21.70;67.90;;;;;;5099621;28;20035;-85
2023/07/05 06:19:10;;;;;;;1.77;0.70;;;21.80;68.20;;;;;;5099212;28;20328;-86
2023/07/05 06:21:36;;;;;;;1.55;1.02;;;21.70;67.90;;;;;;5098597;28;20468;-84
2023/07/05 06:24:02;;;;;;;;;;;21.80;67.70;;;;;;5099599;28;20076;-85
2023/07/05 06:26:28;;;;;;;0.63;0.45;;;21.90;67.30;;;;;;5098674;28;19948;-83
2023/07/05 06:28:54;;;;;;;;;;;22.00;66.80;;;;;;5118142;28;20028;-84
2023/07/05 06:31:20;;;;;;;0.75;0.50;;;22.20;67.10;;;;;;5115551;28;19924;-84
2023/07/05 06:33:46;;;;;;;;;;;22.40;66.40;;;;;;5116449;28;20028;-86
2023/07/05 06:36:12;;;;;;;1.05;0.95;;;22.30;66.60;;;;;;5098502;28;19926;-85
2023/07/05 06:38:38;;;;;;;2.10;0.85;;;22.50;66.00;;;;;;5098870;28;20114;-84
2023/07/05 06:41:05;;;;;;;;;;;22.50;65.60;;;;;;5115775;28;20064;-86
2023/07/05 06:43:31;;;;;;;1.67;1.00;;;22.60;65.10;;;;;;5098937;28;20023;-86
2023/07/05 06:45:57;;;;;;;0.22;0.22;;;22.70;65.00;;;;;;5115049;28;20036;-88
2023/07/05 06:48:24;;;;;;;1.35;0.90;;;22.80;64.70;;;;;;5115511;28;20027;-85
2023/07/05 06:51:10;;;;;;;0.57;0.55;;;22.90;64.50;;;;;;5114811;28;20039;-86
2023/07/05 06:53:36;;;;;;;1.25;0.88;;;22.90;64.50;;;;;;5098359;28;20028;-88
2023/07/05 06:56:02;;;;;;;1.25;0.90;;;23.10;64.70;;;;;;5115437;28;20063;-86
2023/07/05 06:58:28;;;;;;;0.52;0.50;;;23.10;63.90;;;;;;5115560;28;20438;-87
2023/07/05 07:00:54;;;;;;;;;;;23.20;64.10;;;;;;5116597;28;20044;-82
2023/07/05 07:03:20;;;;;;;1.27;0.45;;;23.30;64.20;;;;;;5115169;28;19916;-85
2023/07/05 07:06:05;;;;;;;3.50;1.60;;;23.40;64.10;;;;;;5114561;28;20048;-82
2023/07/05 07:08:34;;;;;;;0.93;0.70;;;23.50;63.80;;;;;;5097878;28;20031;-82
2023/07/05 07:11:02;;;;;;;0.32;0.30;;;23.60;63.50;;;;;;5114776;28;20062;-80
2023/07/05 07:13:29;;;;;;;1.23;0.50;;;23.80;62.90;;;;;;5097898;28;20119;-85
2023/07/05 07:16:15;;;;;;;0.77;0.77;;;24.00;62.70;;;;;;5097369;28;20039;-81
2023/07/05 07:18:46;;;;;;;1.02;0.73;;;24.20;62.20;;;;;;5114813;28;20373;-85
2023/07/05 07:21:12;;;;;;;1.15;0.77;;;24.40;62.10;;;;;;5114188;28;20118;-83
2023/07/05 07:23:40;;;;;;;3.35;1.52;;;24.40;61.90;;;;;;5097615;28;20038;-80
2023/07/05 07:26:24;;;;;;;5.22;0.80;;;24.40;62.20;;;;;;5114251;28;20039;-81
2023/07/05 07:28:54;;;;;;;0.60;0.43;;;24.60;62.10;;;;;;5097530;28;20032;-82
2023/07/05 07:31:40;;;;;;;0.30;0.30;;;24.70;61.70;;;;;;5113676;28;20377;-81
2023/07/05 07:34:07;;;;;;;0.30;0.30;;;24.80;61.50;;;;;;5114657;28;20059;-82
2023/07/05 07:36:35;;;;;;;1.35;1.13;;;25.00;61.10;;;;;;5096809;28;20107;-84
2023/07/05 07:39:02;;;;;;;0.90;0.70;;;25.10;60.90;;;;;;5097202;28;20040;-81
2023/07/05 07:41:51;;;;;;;0.65;0.65;;;25.00;60.30;;;;;;5096968;28;20096;-82
2023/07/05 07:44:19;;;;;;;1.27;0.90;;;25.20;60.00;;;;;;5114281;28;20062;-85
2023/07/05 07:46:45;;;;;;;1.38;1.27;;;25.40;59.70;;;;;;5113846;28;20027;-81
2023/07/05 07:49:12;;;;;;;1.83;1.33;;;25.50;58.90;;;;;;5097263;28;20476;-84
2023/07/05 07:51:44;;;;;;;2.78;0.90;;;25.60;59.00;;;;;;5115147;28;20036;-84
2023/07/05 07:54:31;;;;;;;1.23;0.70;;;25.60;58.10;;;;;;5114127;28;20032;-86
2023/07/05 07:56:57;;;;;;;1.33;0.68;;;25.80;58.00;;;;;;5097069;28;20400;-84
2023/07/05 07:59:24;;;;;;;1.52;1.02;;;25.80;57.80;;;;;;5113964;28;20039;-82
2023/07/05 08:01:50;;;;;;;0.60;0.60;;;25.80;57.50;;;;;;5113116;28;20051;-84
2023/07/05 08:04:17;;;;;;;0.88;0.82;;;26.00;57.80;;;;;;5113878;28;20057;-82
2023/07/05 08:07:03;;;;;;;2.00;1.45;;;26.10;57.40;;;;;;5096144;28;20437;-86
2023/07/05 08:09:29;;;;;;;1.33;0.77;;;26.20;56.70;;;;;;5112593;28;20130;-88
2023/07/05 08:11:58;;;;;;;0.40;0.35;;;26.20;57.10;;;;;;5113149;28;20047;-87
2023/07/05 08:14:24;;;;;;;0.95;0.50;;;26.30;57.00;;;;;;5096464;28;20425;-83
2023/07/05 08:16:50;;;;;;;1.17;0.77;;;26.40;56.30;;;;;;5096138;28;20039;-81
2023/07/05 08:19:16;;;;;;;1.02;0.80;;;26.50;56.40;;;;;;5113124;28;20031;-82
2023/07/05 08:21:45;;;;;;;0.80;0.75;;;26.50;55.20;;;;;;5095590;28;20104;-82
2023/07/05 08:24:12;;;;;;;3.03;2.15;;;26.60;54.50;;;;;;5113655;28;20050;-84
2023/07/05 08:26:38;;;;;;;1.55;1.25;;;26.70;54.20;;;;;;5096095;28;20031;-82
2023/07/05 08:29:05;;;;;;;0.63;0.52;;;26.80;53.70;;;;;;5113345;28;20106;-84
2023/07/05 08:31:31;;;;;;;2.40;1.67;;;26.80;54.00;;;;;;5095614;28;20496;-81
2023/07/05 08:33:57;;;;;;;1.08;0.50;;;26.80;53.60;;;;;;5112892;28;20396;-84
2023/07/05 08:36:42;;;;;;;0.63;0.57;;;26.90;53.40;;;;;;5113002;28;20036;-85
2023/07/05 08:39:11;;;;;;;0.73;0.52;;;27.10;52.70;;;;;;5096002;28;20488;-82
2023/07/05 08:42:16;;;;;;;0.57;0.50;;;27.30;52.20;;;;;;5113066;28;20039;-80
2023/07/05 08:45:01;;;;;;;1.42;0.95;;;27.70;51.60;;;;;;5113908;28;20095;-85
2023/07/05 08:47:36;;;;;;;2.28;0.73;;;27.90;49.60;;;;;;5112767;28;20031;-82
2023/07/05 08:50:40;;;;;;;1.23;0.98;;;28.10;50.90;;;;;;5112603;28;20499;-84
2023/07/05 08:53:25;;;;;;;2.40;0.95;;;28.20;50.90;;;;;;5112796;28;20023;-81
2023/07/05 08:56:40;;;;;;;1.50;0.52;;;28.40;50.10;;;;;;5095270;28;20031;-84
2023/07/05 09:00:08;;;;;;;1.65;1.40;;;28.50;48.40;;;;;;5112724;28;20032;-83
2023/07/05 09:02:34;;;;;;;2.88;2.10;;;28.70;48.50;;;;;;5112733;28;20127;-81
2023/07/05 09:05:01;;;;;;;2.20;0.90;;;28.90;46.20;;;;;;5113813;28;20036;-83
2023/07/05 09:08:12;;;;;;;0.55;0.50;;;28.70;46.80;;;;;;5112606;28;20031;-82
2023/07/05 09:11:25;;;;;;;1.05;0.63;;;28.80;47.40;;;;;;5112383;28;20112;-85
2023/07/05 09:14:31;;;;;;;0.75;0.50;;;28.90;46.80;;;;;;5114008;28;20030;-84
2023/07/05 09:17:13;;;;;;;1.38;0.85;;;28.90;46.60;;;;;;5112710;28;20113;-85
2023/07/05 09:19:52;;;;;;;2.13;0.90;;;28.80;46.80;;;;;;5095446;28;20058;-84
2023/07/05 09:22:27;;;;;;;1.02;0.98;;;29.00;47.00;;;;;;5114064;28;20035;-84
2023/07/05 09:24:55;;;;;;;3.38;1.73;;;28.90;45.70;;;;;;5112818;28;20451;-84
2023/07/05 09:27:46;;;;;;;0.70;0.60;;;28.80;46.00;;;;;;5095671;28;20039;-85
2023/07/05 09:30:30;;;;;;;0.70;0.57;;;28.70;46.00;;;;;;5112114;28;20516;-84
2023/07/05 09:33:20;;;;;;;2.33;1.58;;;29.40;46.10;;;;;;5095649;28;20058;-82
2023/07/05 09:35:48;;;;;;;2.50;0.80;;;30.30;44.40;;;;;;5112118;28;20031;-81
2023/07/05 09:38:41;;;;;;;1.45;0.82;;;30.30;43.30;;;;;;5112503;28;20082;-86
2023/07/05 09:41:46;;;;;;;2.05;1.63;;;30.10;44.00;;;;;;5112224;28;20032;-87
2023/07/05 09:44:15;;;;;;;1.05;0.98;;;29.90;43.80;;;;;;5112618;28;20024;-88
2023/07/05 09:46:42;;;;;;;1.50;1.00;;;30.40;42.90;;;;;;5111941;28;20085;-85
2023/07/05 09:49:27;;;;;;;1.00;0.82;;;30.60;41.40;;;;;;5112593;28;20057;-91
2023/07/05 09:51:54;;;;;;;1.23;0.60;;;31.80;39.90;;;;;;5112463;28;20032;-90
2023/07/05 09:54:39;;;;;;;2.78;0.80;;;33.10;37.20;;;;;;5095827;28;20066;-85
2023/07/05 09:57:09;;;;;;;1.05;0.88;;;33.20;35.90;;;;;;5095425;28;20035;-88
2023/07/05 09:59:37;;;;;;;2.53;1.40;;;32.80;36.90;;;;;;5096003;28;20032;-87
2023/07/05 10:02:40;;;;;;;2.35;1.40;;;33.70;35.70;;;;;;5111987;28;20035;-90
2023/07/05 10:05:28;;;;;;;1.95;1.15;;;33.40;36.40;;;;;;5095197;28;20043;-86
2023/07/05 10:07:58;;;;;;;0.95;0.77;;;33.30;35.90;;;;;;5112619;28;20107;-90
2023/07/05 10:10:43;;;;;;;1.75;1.00;;;33.30;35.80;;;;;;5111808;28;20047;-85
2023/07/05 10:13:29;;;;;;;1.23;0.88;;;33.60;35.40;;;;;;5095452;28;20031;-84
2023/07/05 10:16:14;;;;;;;1.40;1.08;;;35.00;33.40;;;;;;5095094;28;20042;-84
2023/07/05 10:18:40;;;;;;;0.82;0.80;;;36.50;32.50;;;;;;5113441;28;20034;-85
2023/07/05 10:21:18;;;;;;;1.33;0.85;;;37.70;30.40;;;;;;5112110;28;20042;-90
2023/07/05 10:23:46;;;;;;;0.50;0.50;;;38.90;29.20;;;;;;5112676;28;20028;-87
2023/07/05 10:26:13;;;;;;;1.08;0.98;;;38.80;28.70;;;;;;5095376;28;20036;-89
2023/07/05 10:28:42;;;;;;;0.75;0.60;;;39.70;27.90;;;;;;5095630;28;20484;-89
2023/07/05 10:31:30;;;;;;;0.90;0.90;;;38.90;28.50;;;;;;5112431;28;20036;-86
2023/07/05 10:34:33;;;;;;;1.83;1.02;;;38.20;29.70;;;;;;5099168;28;20663;-86
2023/07/05 10:37:04;;;;;;;0.75;0.73;;;38.10;29.40;;;;;;5098783;28;20500;-89
2023/07/05 10:39:31;;;;;;;1.20;1.10;;;39.10;28.10;;;;;;5099052;28;20114;-89
2023/07/05 10:42:00;;;;;;;1.73;1.05;;;40.20;26.20;;;;;;5098433;28;20572;-88
2023/07/05 10:44:47;;;;;;;1.20;1.08;;;41.00;24.90;;;;;;5098906;28;20487;-86
2023/07/05 10:47:14;;;;;;;2.00;1.20;;;41.70;24.40;;;;;;5115718;28;20039;-89
2023/07/05 10:49:46;;;;;;;1.92;1.17;;;42.50;23.20;;;;;;5099082;28;20058;-88
2023/07/05 10:52:16;;;;;;;0.90;0.85;;;42.80;23.30;;;;;;5098920;28;20066;-87
2023/07/05 10:55:21;;;;;;;2.20;1.23;;;43.70;22.10;;;;;;5098429;28;20024;-87
2023/07/05 10:58:28;;;;;;;1.90;1.33;;;43.70;22.40;;;;;;5098350;28;20072;-88
2023/07/05 11:01:32;;;;;;;1.10;1.00;;;43.20;22.90;;;;;;5114781;28;20055;-85
2023/07/05 11:04:08;;;;;;;1.08;0.95;;;43.70;22.70;;;;;;5115370;28;20050;-89
2023/07/05 11:06:36;;;;;;;1.65;0.90;;;43.30;22.50;;;;;;5114866;28;20027;-88
2023/07/05 11:09:03;;;;;;;1.27;0.90;;;44.40;21.70;;;;;;5098201;28;20027;-88
2023/07/05 11:11:39;;;;;;;1.25;1.15;;;45.60;21.00;;;;;;5098151;28;20480;-88
2023/07/05 11:14:07;;;;;;;4.15;1.00;;;46.20;20.00;;;;;;5098044;28;20476;-87
2023/07/05 11:16:34;;;;;;;3.53;1.75;;;46.90;19.20;;;;;;5114686;28;20052;-86
2023/07/05 11:19:40;;;;;;;1.10;1.00;;;47.40;18.80;;;;;;5114870;28;20080;-87
2023/07/05 11:22:10;;;;;;;2.08;1.65;;;48.20;18.90;;;;;;5116055;28;20044;-88
2023/07/05 11:24:55;;;;;;;1.70;1.60;;;49.00;18.00;;;;;;5114536;28;20042;-87
2023/07/05 11:27:58;;;;;;;1.35;1.20;;;49.40;16.50;;;;;;5115966;28;20036;-86
2023/07/05 11:30:44;;;;;;;1.92;1.30;;;50.10;16.90;;;;;;5113910;28;20051;-86
2023/07/05 11:33:11;;;;;;;2.00;1.67;;;50.80;16.50;;;;;;5097259;28;20515;-86
2023/07/05 11:35:50;;;;;;;1.98;1.77;;;51.00;15.70;;;;;;5096568;28;20130;-86
2023/07/05 11:38:35;;;;;;;2.75;1.85;;;51.20;15.00;;;;;;5097060;28;20027;-86
2023/07/05 11:41:05;;;;;;;1.30;1.20;;;51.50;15.30;;;;;;5114631;28;20035;-86
2023/07/05 11:43:56;;;;;;;2.03;1.70;;;51.10;15.00;;;;;;5096716;28;20036;-84
2023/07/05 11:46:43;;;;;;;2.42;2.13;;;51.20;15.20;;;;;;5096421;28;20036;-87
2023/07/05 11:50:06;;;;;;;1.67;1.58;;;51.40;13.90;;;;;;5097034;28;20034;-86
2023/07/05 11:53:13;;;;;;;2.47;2.22;;;51.80;14.00;;;;;;5115311;28;20044;-88
2023/07/05 11:55:40;;;;;;;2.05;1.85;;;52.50;14.50;;;;;;5113485;28;20027;-89
2023/07/05 11:58:28;;;;;;;2.95;2.55;;;52.70;13.70;;;;;;5113784;28;20081;-87
2023/07/05 12:01:22;;;;;;;1.85;1.70;;;52.80;13.70;;;;;;5096206;28;20039;-87
2023/07/05 12:03:54;;;;;;;2.15;1.95;;;53.10;14.50;;;;;;5096630;28;20063;-87
2023/07/05 12:06:34;;;;;;;2.33;2.05;;;53.40;13.60;;;;;;5096255;28;20070;-84
2023/07/05 12:09:04;;;;;;;3.53;2.47;;;53.30;13.60;;;;;;5113431;28;20031;-87
2023/07/05 12:11:41;;;;;;;3.65;2.70;;;51.90;13.20;;;;;;5096399;28;20484;-85
2023/07/05 12:14:12;;;;;;;2.85;2.55;;;52.20;14.40;;;;;;5113798;28;20035;-87
2023/07/05 12:16:38;;;;;;;2.30;2.10;;;53.00;14.60;;;;;;5096443;28;20156;-87
2023/07/05 12:19:37;;;;;;;2.85;2.55;;;53.40;13.30;;;;;;5114603;28;20496;-87
2023/07/05 12:22:25;;;;;;;3.20;2.90;;;53.40;13.10;;;;;;5114403;28;20095;-87
2023/07/05 12:24:54;;;;;;;2.78;2.42;;;53.70;12.20;;;;;;5113557;28;20102;-89
2023/07/05 12:27:40;;;;;;;3.15;2.85;;;53.60;12.90;;;;;;5096480;28;20039;-85
2023/07/05 12:30:18;;;;;;;4.05;2.88;;;53.60;11.50;;;;;;5096123;28;20277;-86
2023/07/05 12:33:04;;;;;;;2.15;1.95;;;53.50;12.40;;;;;;5096665;28;20047;-87
2023/07/05 12:35:30;;;;;;;8.75;2.65;;;54.20;12.60;;;;;;5095855;28;20479;-87
2023/07/05 12:37:58;;;;;;;2.97;2.67;;;54.40;12.80;;;;;;5096558;28;20028;-88
2023/07/05 12:40:50;;;;;;;2.55;2.35;;;54.50;12.80;;;;;;5095891;28;20031;-90
2023/07/05 12:46:28;;;;;;;3.92;3.13;;;55.00;12.60;;;;;;5112603;28;20542;-87
2023/07/05 12:48:55;;;;;;;3.33;2.42;;;55.10;12.80;;;;;;5112864;28;20031;-88
2023/07/05 12:51:59;;;;;;;2.67;2.38;;;54.90;12.20;;;;;;5112808;28;20115;-86
2023/07/05 12:54:26;;;;;;;4.43;3.77;;;53.90;12.60;;;;;;5095400;28;20400;-86
2023/07/05 12:56:54;;;;;;;2.20;1.98;;;52.50;13.40;;;;;;5095835;28;20456;-86
2023/07/05 12:59:41;;;;;;;2.20;2.00;;;51.30;14.20;;;;;;5113090;28;20110;-89
2023/07/05 13:02:44;;;;;;;2.65;2.10;;;49.70;15.40;;;;;;5095721;28;20400;-84
2023/07/05 13:05:10;;;;;;;1.98;1.77;;;48.00;16.20;;;;;;5112079;28;20365;-87
2023/07/05 13:07:41;;;;;;;1.77;1.60;;;46.80;17.60;;;;;;5114213;28;20540;-84
2023/07/05 13:10:10;;;;;;;2.72;1.63;;;45.60;18.20;;;;;;5095112;28;20031;-86
2023/07/05 13:12:58;;;;;;;1.48;1.38;;;44.60;18.30;;;;;;5114850;28;20476;-89
2023/07/05 13:15:43;;;;;;;0.90;0.90;;;43.40;20.00;;;;;;5096295;28;20418;-89
2023/07/05 13:18:31;;;;;;;1.35;1.05;;;42.50;20.90;;;;;;5112864;28;20035;-88
2023/07/05 13:21:15;;;;;;;1.98;1.75;;;41.70;21.40;;;;;;5112645;28;20381;-88
2023/07/05 13:24:00;;;;;;;3.78;1.60;;;40.90;21.80;;;;;;5095930;28;20038;-85
2023/07/05 13:26:30;;;;;;;2.00;1.33;;;40.10;22.90;;;;;;5113918;28;20089;-85
2023/07/05 13:28:59;;;;;;;0.85;0.85;;;39.40;23.30;;;;;;5096485;28;20042;-90
2023/07/05 13:31:26;;;;;;;1.90;1.42;;;39.00;23.90;;;;;;5095673;28;20073;-85
2023/07/05 13:33:55;;;;;;;0.70;0.63;;;38.50;24.50;;;;;;5112903;28;20031;-88